createdAt,value
2023-07-19T00:00:54.064Z,7.50
2023-07-19T00:03:23.110Z,5.85
2023-07-19T00:06:03.724Z,9.20
2023-07-19T00:08:34.172Z,9.57
2023-07-19T00:11:03.064Z,8.27
2023-07-19T00:13:33.396Z,8.52
2023-07-19T00:16:02.010Z,6.50
2023-07-19T00:18:30.769Z,9.60
2023-07-19T00:21:00.681Z,7.82
2023-07-19T00:23:30.746Z,8.93
2023-07-19T00:26:03.764Z,9.73
2023-07-19T00:28:36.788Z,5.60
2023-07-19T00:31:07.288Z,8.27
2023-07-19T00:33:35.871Z,9.25
2023-07-19T00:36:04.640Z,10.52
2023-07-19T00:38:33.245Z,7.18
2023-07-19T00:41:01.711Z,8.07
2023-07-19T00:43:31.247Z,6.13
2023-07-19T00:46:01.288Z,10.25
2023-07-19T00:48:29.835Z,8.00
2023-07-19T00:50:59.326Z,7.78
2023-07-19T00:53:28.617Z,10.45
2023-07-19T00:55:57.342Z,7.93
2023-07-19T00:58:26.194Z,7.38
2023-07-19T01:00:55.090Z,8.75
2023-07-19T01:03:24.942Z,9.63
2023-07-19T01:05:54.231Z,8.80
2023-07-19T01:08:22.628Z,8.88
2023-07-19T01:10:51.825Z,6.15
2023-07-19T01:13:20.576Z,6.28
2023-07-19T01:15:49.073Z,7.30
2023-07-19T01:18:20.928Z,6.75
2023-07-19T01:21:10.178Z,7.00
2023-07-19T01:23:47.788Z,6.78
2023-07-19T01:26:24.458Z,6.68
2023-07-19T01:28:52.855Z,6.78
2023-07-19T01:31:21.647Z,6.50
2023-07-19T01:33:50.836Z,6.60
2023-07-19T01:36:19.409Z,7.85
2023-07-19T01:38:49.425Z,6.00
2023-07-19T01:41:18.862Z,9.38
2023-07-19T01:43:47.759Z,5.10
2023-07-19T01:46:16.341Z,6.10
2023-07-19T01:48:45.282Z,5.63
2023-07-19T01:51:14.101Z,6.18
2023-07-19T01:53:42.956Z,5.07
2023-07-19T01:56:13.700Z,7.32
2023-07-19T01:58:42.066Z,5.18
2023-07-19T02:01:10.541Z,5.45
2023-07-19T02:03:39.471Z,5.75
2023-07-19T02:06:16.728Z,7.75
2023-07-19T02:08:45.822Z,6.10
2023-07-19T02:11:15.486Z,5.45
2023-07-19T02:13:43.875Z,6.28
2023-07-19T02:16:12.584Z,6.38
2023-07-19T02:18:40.891Z,5.55
2023-07-19T02:21:10.020Z,4.80
2023-07-19T02:23:45.195Z,4.68
2023-07-19T02:26:22.815Z,4.72
2023-07-19T02:28:52.028Z,5.72
2023-07-19T02:31:21.066Z,6.03
2023-07-19T02:33:49.787Z,5.68
2023-07-19T02:36:18.689Z,4.93
2023-07-19T02:38:47.351Z,5.18
2023-07-19T02:41:17.656Z,7.65
2023-07-19T02:43:46.652Z,6.35
2023-07-19T02:46:15.426Z,6.43
2023-07-19T02:48:44.500Z,8.48
2023-07-19T02:51:12.917Z,7.10
2023-07-19T02:53:41.693Z,7.28
2023-07-19T02:56:10.473Z,8.23
2023-07-19T02:58:45.276Z,7.80
2023-07-19T03:01:15.410Z,9.82
2023-07-19T03:03:44.379Z,9.27
2023-07-19T03:06:13.376Z,6.68
2023-07-19T03:08:41.704Z,10.25
2023-07-19T03:11:11.285Z,8.50
2023-07-19T03:13:39.976Z,10.35
2023-07-19T03:16:11.076Z,9.60
2023-07-19T03:18:39.368Z,9.60
2023-07-19T03:21:08.252Z,8.80
2023-07-19T03:23:36.916Z,9.23
2023-07-19T03:26:05.467Z,11.40
2023-07-19T03:28:34.359Z,8.10
2023-07-19T03:31:02.880Z,10.52
2023-07-19T03:33:32.980Z,12.13
2023-07-19T03:36:22.698Z,11.05
2023-07-19T03:38:51.222Z,11.20
2023-07-19T03:41:20.973Z,9.85
2023-07-19T03:43:49.681Z,9.65
2023-07-19T03:46:17.906Z,10.27
2023-07-19T03:48:47.983Z,9.07
2023-07-19T03:51:16.793Z,9.82
2023-07-19T03:53:45.064Z,7.30
2023-07-19T03:56:14.134Z,9.20
2023-07-19T03:58:44.583Z,10.40
2023-07-19T04:01:13.760Z,10.25
2023-07-19T04:03:42.412Z,8.55
2023-07-19T04:06:12.696Z,8.95
2023-07-19T04:08:41.387Z,7.78
2023-07-19T04:11:09.753Z,9.57
2023-07-19T04:13:38.704Z,8.90
2023-07-19T04:16:08.076Z,7.25
2023-07-19T04:18:36.634Z,8.45
2023-07-19T04:21:06.272Z,8.63
2023-07-19T04:23:36.622Z,7.65
2023-07-19T04:26:06.959Z,6.88
2023-07-19T04:28:36.353Z,9.70
2023-07-19T04:31:04.734Z,10.23
2023-07-19T04:33:33.487Z,7.95
2023-07-19T04:36:02.045Z,6.30
2023-07-19T04:38:30.474Z,8.25
2023-07-19T04:41:10.689Z,8.80
2023-07-19T04:43:39.562Z,7.72
2023-07-19T04:46:08.352Z,5.80
2023-07-19T04:48:38.168Z,5.90
2023-07-19T04:51:07.550Z,8.57
2023-07-19T04:53:36.069Z,6.63
2023-07-19T04:56:04.821Z,7.05
2023-07-19T04:58:34.623Z,6.07
2023-07-19T05:01:11.456Z,6.05
2023-07-19T05:03:42.247Z,6.90
2023-07-19T05:06:10.531Z,7.10
2023-07-19T05:08:39.688Z,8.52
2023-07-19T05:11:07.852Z,8.50
2023-07-19T05:13:37.765Z,9.40
2023-07-19T05:16:07.765Z,4.82
2023-07-19T05:18:36.888Z,6.05
2023-07-19T05:21:07.514Z,7.05
2023-07-19T05:23:36.239Z,6.28
2023-07-19T05:26:04.949Z,8.25
2023-07-19T05:28:33.899Z,3.97
2023-07-19T05:31:09.539Z,7.43
2023-07-19T05:33:38.278Z,6.00
2023-07-19T05:36:13.381Z,7.95
2023-07-19T05:38:42.363Z,5.45
2023-07-19T05:41:10.830Z,6.55
2023-07-19T05:43:39.209Z,6.53
2023-07-19T05:46:10.610Z,6.85
2023-07-19T05:48:39.022Z,5.70
2023-07-19T05:51:08.853Z,5.45
2023-07-19T05:53:40.247Z,6.25
2023-07-19T05:56:08.864Z,8.55
2023-07-19T05:58:42.084Z,5.82
2023-07-19T06:01:16.119Z,6.68
2023-07-19T06:03:59.638Z,5.88
2023-07-19T06:07:07.073Z,5.50
2023-07-19T06:09:38.332Z,7.03
2023-07-19T06:12:07.423Z,4.97
2023-07-19T06:14:36.027Z,6.07
2023-07-19T06:17:06.844Z,5.55
2023-07-19T06:19:44.310Z,4.35
2023-07-19T06:22:12.849Z,4.03
2023-07-19T06:24:41.110Z,5.40
2023-07-19T06:27:18.180Z,5.30
2023-07-19T06:29:58.487Z,7.60
2023-07-19T06:32:39.037Z,5.68
2023-07-19T06:35:10.261Z,7.68
2023-07-19T06:37:38.554Z,4.75
2023-07-19T06:40:08.329Z,7.97
2023-07-19T06:42:44.165Z,6.53
2023-07-19T06:45:32.629Z,6.55
2023-07-19T06:48:04.543Z,5.78
2023-07-19T06:51:09.915Z,6.93
2023-07-19T06:53:41.260Z,8.93
2023-07-19T06:56:10.176Z,7.43
2023-07-19T06:58:52.298Z,7.35
2023-07-19T07:01:27.148Z,6.82
2023-07-19T07:03:57.435Z,8.32
2023-07-19T07:06:25.952Z,6.97
2023-07-19T07:08:54.206Z,6.95
2023-07-19T07:11:22.853Z,5.07
2023-07-19T07:13:51.293Z,5.30
2023-07-19T07:16:20.142Z,8.27
2023-07-19T07:18:48.978Z,7.82
2023-07-19T07:21:19.147Z,6.70
2023-07-19T07:23:47.766Z,7.65
2023-07-19T07:26:17.156Z,6.35
2023-07-19T07:28:45.692Z,7.10
2023-07-19T07:31:14.028Z,6.53
2023-07-19T07:33:42.902Z,6.75
2023-07-19T07:36:11.653Z,7.65
2023-07-19T07:38:42.493Z,4.70
2023-07-19T07:41:13.587Z,6.22
2023-07-19T07:43:41.946Z,6.07
2023-07-19T07:46:10.289Z,4.97
2023-07-19T07:48:39.116Z,5.13
2023-07-19T07:51:07.597Z,5.78
2023-07-19T07:53:36.193Z,8.23
2023-07-19T07:56:12.887Z,6.13
2023-07-19T07:58:41.233Z,6.47
2023-07-19T08:01:09.930Z,6.68
2023-07-19T08:03:38.660Z,6.80
2023-07-19T08:06:07.233Z,7.80
2023-07-19T08:08:36.114Z,4.93
2023-07-19T08:11:08.680Z,6.60
2023-07-19T08:13:37.376Z,4.75
2023-07-19T08:16:07.944Z,3.90
2023-07-19T08:18:36.520Z,5.28
2023-07-19T08:21:07.733Z,3.55
2023-07-19T08:23:36.890Z,6.10
2023-07-19T08:26:07.131Z,6.13
2023-07-19T08:28:35.661Z,3.65
2023-07-19T08:31:04.148Z,4.63
2023-07-19T08:33:32.906Z,4.03
2023-07-19T08:36:01.624Z,6.60
2023-07-19T08:38:30.072Z,5.75
2023-07-19T08:41:03.367Z,4.60
2023-07-19T08:46:03.259Z,8.35
2023-07-19T08:48:34.607Z,5.93
2023-07-19T08:51:04.098Z,3.95
2023-07-19T08:53:32.325Z,4.95
2023-07-19T08:56:00.618Z,4.35
2023-07-19T08:58:29.257Z,5.32
2023-07-19T09:00:59.321Z,5.53
2023-07-19T09:03:27.876Z,5.75
2023-07-19T09:05:56.851Z,2.75
2023-07-19T09:08:37.635Z,2.45
2023-07-19T09:11:06.338Z,3.10
2023-07-19T09:13:37.746Z,4.22
2023-07-19T09:16:08.944Z,4.20
2023-07-19T09:18:38.767Z,5.28
2023-07-19T09:21:07.903Z,3.90
2023-07-19T09:23:38.364Z,3.10
2023-07-19T09:26:08.149Z,2.53
2023-07-19T09:28:37.215Z,2.13
2023-07-19T09:31:23.932Z,2.00
2023-07-19T09:33:57.368Z,2.22
2023-07-19T09:36:26.074Z,3.75
2023-07-19T09:38:55.493Z,3.78
2023-07-19T09:41:24.259Z,2.53
2023-07-19T09:43:55.405Z,3.03
2023-07-19T09:46:27.279Z,4.13
2023-07-19T09:48:55.669Z,3.83
2023-07-19T09:51:24.758Z,3.45
2023-07-19T09:53:55.368Z,2.97
2023-07-19T09:56:24.036Z,5.60
2023-07-19T09:58:53.749Z,4.28
2023-07-19T10:01:43.295Z,3.33
2023-07-19T10:04:41.109Z,4.32
2023-07-19T10:07:37.393Z,4.88
2023-07-19T10:10:16.548Z,5.60
2023-07-19T10:12:49.738Z,3.33
2023-07-19T10:15:21.903Z,2.70
2023-07-19T10:18:00.583Z,2.28
2023-07-19T10:20:31.797Z,2.80
2023-07-19T10:23:10.586Z,2.58
2023-07-19T10:25:40.229Z,3.25
2023-07-19T10:28:09.774Z,3.42
2023-07-19T10:30:56.186Z,3.05
2023-07-19T10:33:26.590Z,3.70
2023-07-19T10:35:57.797Z,4.28
2023-07-19T10:38:29.702Z,3.47
2023-07-19T10:40:59.937Z,3.35
2023-07-19T10:43:44.210Z,4.53
2023-07-19T10:46:15.530Z,4.68
2023-07-19T10:48:44.093Z,4.78
2023-07-19T10:51:12.511Z,4.85
2023-07-19T10:53:47.098Z,4.35
2023-07-19T10:56:17.061Z,5.80
2023-07-19T10:58:45.775Z,5.82
2023-07-19T11:01:15.151Z,5.05
2023-07-19T11:03:47.762Z,4.00
2023-07-19T11:06:16.546Z,4.63
2023-07-19T11:08:46.895Z,5.03
2023-07-19T11:11:16.208Z,5.15
2023-07-19T11:13:47.283Z,4.53
2023-07-19T11:16:16.163Z,4.25
2023-07-19T11:18:44.391Z,4.78
2023-07-19T11:21:13.076Z,5.00
2023-07-19T11:23:43.655Z,6.43
2023-07-19T11:26:18.225Z,4.72
2023-07-19T11:28:49.662Z,6.22
2023-07-19T11:31:44.540Z,5.25
2023-07-19T11:34:15.319Z,7.28
2023-07-19T11:36:45.703Z,6.95
2023-07-19T11:39:16.892Z,8.15
2023-07-19T11:41:47.699Z,6.63
2023-07-19T11:44:16.393Z,5.13
2023-07-19T11:46:44.824Z,3.35
2023-07-19T11:49:13.509Z,3.55
2023-07-19T11:51:42.311Z,4.72
2023-07-19T11:54:10.667Z,4.82
2023-07-19T11:56:39.511Z,4.45
2023-07-19T11:59:09.184Z,3.63
2023-07-19T12:01:37.486Z,4.28
2023-07-19T12:04:06.495Z,3.13
2023-07-19T12:06:34.767Z,3.90
2023-07-19T12:09:03.096Z,3.72
2023-07-19T12:11:32.062Z,4.50
2023-07-19T12:14:02.437Z,3.33
2023-07-19T12:16:33.223Z,3.38
2023-07-19T12:19:01.517Z,3.33
2023-07-19T12:21:29.670Z,3.50
2023-07-19T12:23:59.658Z,1.73
2023-07-19T12:28:59.882Z,2.63
2023-07-19T12:31:28.525Z,2.65
2023-07-19T12:33:59.049Z,3.83
2023-07-19T12:36:28.300Z,4.50
2023-07-19T12:38:57.841Z,2.75
2023-07-19T12:41:26.187Z,3.50
2023-07-19T12:43:54.692Z,4.07
2023-07-19T12:46:23.751Z,6.32
2023-07-19T12:48:52.356Z,3.78
2023-07-19T12:51:23.778Z,4.88
2023-07-19T12:53:52.138Z,4.88
2023-07-19T12:56:20.897Z,4.38
2023-07-19T12:58:49.886Z,4.30
2023-07-19T13:01:18.195Z,3.78
2023-07-19T13:03:46.545Z,5.60
2023-07-19T13:06:15.767Z,4.53
2023-07-19T13:08:45.889Z,5.82
2023-07-19T13:11:14.120Z,4.32
2023-07-19T13:13:43.779Z,4.68
2023-07-19T13:16:12.189Z,4.93
2023-07-19T13:18:41.744Z,5.15
2023-07-19T13:21:10.428Z,4.88
2023-07-19T13:23:39.252Z,5.97
2023-07-19T13:26:08.910Z,5.35
2023-07-19T13:28:37.453Z,5.47
2023-07-19T13:31:05.640Z,4.82
2023-07-19T13:33:33.955Z,6.57
2023-07-19T13:36:02.769Z,6.45
2023-07-19T13:38:36.606Z,4.38
2023-07-19T13:41:05.636Z,6.15
2023-07-19T13:43:35.317Z,6.70
2023-07-19T13:46:03.657Z,8.07
2023-07-19T13:48:32.457Z,6.35
2023-07-19T13:51:00.709Z,10.05
2023-07-19T13:53:29.221Z,8.05
2023-07-19T13:55:58.129Z,6.28
2023-07-19T13:58:26.354Z,6.35
2023-07-19T14:00:55.982Z,5.80
2023-07-19T14:03:29.682Z,8.27
2023-07-19T14:05:58.262Z,8.25
2023-07-19T14:08:27.050Z,7.03
2023-07-19T14:10:55.446Z,7.22
2023-07-19T14:16:04.659Z,6.00
2023-07-19T14:18:35.419Z,7.07
2023-07-19T14:21:10.209Z,6.07
2023-07-19T14:23:39.052Z,6.25
2023-07-19T14:26:07.643Z,7.68
2023-07-19T14:28:36.206Z,6.50
2023-07-19T14:31:06.357Z,8.00
2023-07-19T14:33:35.297Z,5.32
2023-07-19T14:36:04.889Z,7.75
2023-07-19T14:38:36.399Z,6.55
2023-07-19T14:41:04.726Z,5.65
2023-07-19T14:43:33.041Z,7.38
2023-07-19T14:46:01.694Z,4.75
2023-07-19T14:48:31.425Z,4.40
2023-07-19T14:51:00.016Z,5.30
2023-07-19T14:53:28.991Z,5.47
2023-07-19T14:55:57.405Z,6.28
2023-07-19T14:58:25.776Z,4.75
2023-07-19T15:00:56.852Z,6.38
2023-07-19T15:05:58.796Z,6.25
2023-07-19T15:08:27.091Z,6.45
2023-07-19T15:10:57.056Z,6.38
2023-07-19T15:13:25.983Z,4.35
2023-07-19T15:15:56.890Z,6.97
2023-07-19T15:18:29.910Z,5.80
2023-07-19T15:20:59.867Z,6.13
2023-07-19T15:23:31.669Z,5.40
2023-07-19T15:26:00.339Z,5.47
2023-07-19T15:28:30.487Z,6.07
2023-07-19T15:31:00.066Z,4.88
2023-07-19T15:33:28.635Z,4.30
2023-07-19T15:36:00.169Z,8.93
2023-07-19T15:38:41.543Z,4.85
2023-07-19T15:41:10.119Z,6.55
2023-07-19T15:43:38.604Z,5.78
2023-07-19T15:46:07.238Z,8.02
2023-07-19T15:48:37.748Z,7.85
2023-07-19T15:51:07.406Z,6.25
2023-07-19T15:53:37.461Z,4.93
2023-07-19T15:56:08.490Z,6.80
2023-07-19T15:58:37.376Z,5.65
2023-07-19T16:01:07.112Z,8.52
2023-07-19T16:03:36.990Z,6.25
2023-07-19T16:06:08.354Z,5.32
2023-07-19T16:08:36.902Z,5.03
2023-07-19T16:11:05.393Z,5.53
2023-07-19T16:13:34.965Z,6.32
2023-07-19T16:16:05.520Z,8.18
2023-07-19T16:18:35.288Z,6.32
2023-07-19T16:21:04.105Z,7.43
2023-07-19T16:23:32.767Z,7.90
2023-07-19T16:26:01.481Z,5.68
2023-07-19T16:28:29.749Z,5.00
2023-07-19T16:30:59.402Z,7.05
2023-07-19T16:33:28.374Z,7.47
2023-07-19T16:35:56.674Z,6.22
2023-07-19T16:38:24.977Z,4.50
2023-07-19T16:40:53.640Z,6.97
2023-07-19T16:43:24.106Z,5.55
2023-07-19T16:45:54.370Z,5.10
2023-07-19T16:48:24.200Z,6.53
2023-07-19T16:50:52.485Z,5.95
2023-07-19T16:53:21.753Z,6.32
2023-07-19T16:55:51.740Z,6.05
2023-07-19T16:58:20.725Z,6.88
2023-07-19T17:00:49.825Z,6.95
2023-07-19T17:03:19.082Z,5.45
2023-07-19T17:05:48.908Z,4.60
2023-07-19T17:08:17.390Z,5.15
2023-07-19T17:10:45.810Z,6.07
2023-07-19T17:13:14.029Z,5.10
2023-07-19T17:15:42.264Z,5.70
2023-07-19T17:18:11.533Z,5.63
2023-07-19T17:20:41.043Z,4.95
2023-07-19T17:23:10.921Z,7.00
2023-07-19T17:25:39.307Z,6.28
2023-07-19T17:28:07.504Z,4.80
2023-07-19T17:30:35.855Z,6.13
2023-07-19T17:33:04.284Z,4.50
2023-07-19T17:35:32.615Z,6.88
2023-07-19T17:38:01.056Z,5.68
2023-07-19T17:40:30.844Z,5.07
2023-07-19T17:42:59.275Z,6.07
2023-07-19T17:45:27.678Z,4.93
2023-07-19T17:47:56.054Z,6.72
2023-07-19T17:50:24.325Z,5.85
2023-07-19T17:52:52.594Z,3.85
2023-07-19T17:55:21.254Z,4.78
2023-07-19T17:57:57.427Z,5.78
2023-07-19T18:00:26.758Z,6.95
2023-07-19T18:02:56.095Z,5.60
2023-07-19T18:05:24.439Z,4.15
2023-07-19T18:07:52.830Z,6.65
2023-07-19T18:10:21.081Z,3.35
2023-07-19T18:12:51.008Z,4.95
2023-07-19T18:15:19.772Z,6.93
2023-07-19T18:17:48.013Z,5.22
2023-07-19T18:20:16.458Z,7.38
2023-07-19T18:22:46.030Z,9.00
2023-07-19T18:25:14.296Z,4.75
2023-07-19T18:27:42.808Z,3.95
2023-07-19T18:30:15.012Z,6.70
2023-07-19T18:32:45.020Z,6.35
2023-07-19T18:35:13.360Z,7.95
2023-07-19T18:37:41.932Z,8.52
2023-07-19T18:40:11.941Z,6.78
2023-07-19T18:42:40.331Z,4.32
2023-07-19T18:45:10.036Z,6.47
2023-07-19T18:47:40.443Z,6.90
2023-07-19T18:50:09.395Z,7.55
2023-07-19T18:52:37.745Z,7.20
2023-07-19T18:55:06.777Z,9.32
2023-07-19T18:57:35.244Z,6.07
2023-07-19T19:00:03.748Z,6.30
2023-07-19T19:02:32.095Z,6.55
2023-07-19T19:05:01.897Z,6.32
2023-07-19T19:07:30.347Z,6.47
2023-07-19T19:09:58.606Z,8.07
2023-07-19T19:12:26.854Z,6.15
2023-07-19T19:14:55.358Z,5.30
2023-07-19T19:17:23.567Z,6.53
2023-07-19T19:19:51.838Z,6.68
2023-07-19T19:22:21.681Z,7.85
2023-07-19T19:24:50.108Z,7.80
2023-07-19T19:27:19.635Z,7.47
2023-07-19T19:29:47.885Z,6.55
2023-07-19T19:32:16.406Z,8.52
2023-07-19T19:34:44.873Z,6.57
2023-07-19T19:37:13.366Z,7.50
2023-07-19T19:39:42.951Z,7.22
2023-07-19T19:42:11.453Z,7.25
2023-07-19T19:44:39.945Z,6.20
2023-07-19T19:47:09.040Z,7.38
2023-07-19T19:49:38.100Z,7.97
2023-07-19T19:52:07.533Z,8.48
2023-07-19T19:54:35.815Z,6.90
2023-07-19T19:57:08.912Z,7.70
2023-07-19T19:59:37.469Z,8.45
2023-07-19T20:04:41.642Z,7.18
2023-07-19T20:07:10.322Z,8.65
2023-07-19T20:09:47.112Z,7.72
2023-07-19T20:12:17.403Z,6.95
2023-07-19T20:14:45.732Z,8.45
2023-07-19T20:17:14.017Z,8.18
2023-07-19T20:19:42.632Z,7.22
2023-07-19T20:22:21.015Z,7.65
2023-07-19T20:25:04.118Z,8.48
2023-07-19T20:27:41.781Z,6.53
2023-07-19T20:30:11.656Z,4.97
2023-07-19T20:35:11.948Z,6.00
2023-07-19T20:37:40.618Z,6.40
2023-07-19T20:42:44.135Z,8.98
2023-07-19T20:45:13.588Z,6.68
2023-07-19T20:47:46.410Z,6.45
2023-07-19T20:50:15.266Z,7.90
2023-07-19T20:52:43.689Z,7.40
2023-07-19T20:55:12.113Z,6.47
2023-07-19T20:57:40.290Z,7.03
2023-07-19T21:00:10.958Z,6.25
2023-07-19T21:02:39.276Z,4.30
2023-07-19T21:05:08.148Z,6.75
2023-07-19T21:07:36.403Z,5.40
2023-07-19T21:10:05.107Z,7.38
2023-07-19T21:12:33.297Z,5.22
2023-07-19T21:15:01.615Z,13.20
2023-07-19T21:17:31.267Z,6.63
2023-07-19T21:19:59.619Z,7.65
2023-07-19T21:22:27.920Z,5.30
2023-07-19T21:27:27.507Z,6.97
2023-07-19T21:29:55.972Z,6.03
2023-07-19T21:32:24.282Z,9.45
2023-07-19T21:34:54.313Z,7.50
2023-07-19T21:37:22.787Z,6.15
2023-07-19T21:39:51.205Z,8.77
2023-07-19T21:42:19.769Z,5.95
2023-07-19T21:44:48.591Z,6.88
2023-07-19T21:47:16.873Z,8.25
2023-07-19T21:49:45.481Z,8.20
2023-07-19T21:52:15.437Z,8.10
2023-07-19T21:54:43.839Z,7.70
2023-07-19T21:57:12.296Z,9.57
2023-07-19T21:59:41.126Z,7.00
2023-07-19T22:02:09.870Z,5.85
2023-07-19T22:04:39.101Z,7.82
2023-07-19T22:07:07.880Z,8.90
2023-07-19T22:09:42.138Z,8.10
2023-07-19T22:12:11.892Z,6.10
2023-07-19T22:14:40.675Z,6.93
2023-07-19T22:17:10.624Z,6.07
2023-07-19T22:19:39.116Z,7.63
2023-07-19T22:22:08.035Z,7.95
2023-07-19T22:24:37.771Z,7.43
2023-07-19T22:27:06.379Z,9.50
2023-07-19T22:29:34.610Z,6.03
2023-07-19T22:32:03.380Z,10.93
2023-07-19T22:34:31.762Z,8.25
2023-07-19T22:36:59.974Z,8.35
2023-07-19T22:39:28.655Z,9.85
2023-07-19T22:41:58.615Z,6.55
2023-07-19T22:44:26.876Z,7.07
2023-07-19T22:46:55.311Z,9.35
2023-07-19T22:49:23.711Z,10.77
2023-07-19T22:51:51.972Z,12.10
2023-07-19T22:54:20.982Z,9.80
2023-07-19T22:56:49.524Z,12.63
2023-07-19T22:59:19.040Z,10.07
2023-07-19T23:01:47.382Z,7.88
2023-07-19T23:04:15.747Z,6.80
2023-07-19T23:06:44.006Z,9.18
2023-07-19T23:09:12.382Z,9.88
2023-07-19T23:11:40.749Z,10.00
2023-07-19T23:14:10.625Z,10.07
2023-07-19T23:16:40.516Z,10.85
2023-07-19T23:19:11.650Z,11.18
2023-07-19T23:21:40.245Z,10.60
2023-07-19T23:24:09.067Z,9.60
2023-07-19T23:26:37.293Z,12.90
2023-07-19T23:29:07.550Z,9.02
2023-07-19T23:31:40.718Z,12.43
2023-07-19T23:34:09.844Z,12.63
2023-07-19T23:36:38.591Z,12.10
2023-07-19T23:39:07.108Z,16.25
2023-07-19T23:41:35.311Z,13.18
2023-07-19T23:44:04.636Z,11.10
2023-07-19T23:46:32.968Z,10.88
2023-07-19T23:49:02.598Z,10.27
2023-07-19T23:51:31.082Z,10.68
2023-07-19T23:54:00.031Z,13.95
2023-07-19T23:56:28.209Z,11.50
2023-07-19T23:58:56.663Z,12.10
